Terminal Aerodrome Forecast
Issued by NWS Quad Cities IA IL

Home | Current Version | Previous Version | Text Only | Print | Product List | Glossary On
Versions: 1 2 3 4 5 6 7 8 9 10 11 12 13 14 15 16 17 18 19 20 21 22 23
000
FTUS43 KDVN 260520
TAFDBQ
TAF
KDBQ 260520Z 2606/2706 09005KT P6SM BKN200
     FM260900 11003KT 4SM BR BKN200
     FM261500 14006KT P6SM BKN200 PROB30 2615/2619 4SM -TSRA
      BKN035CB
     FM261900 16008KT P6SM BKN150=

USA.gov is the U.S. government's official web portal to all federal, state and local government web resources and services.